Latest Weather Observations for Nullo Mountain

IDN60801

Issued at 2:05 am EST Thursday 24 April 2014 (issued every 30 minutes, with the page automatically refreshed every 10 minutes)

About weather observations | Map of weather stations | Latest weather observations for NSW | Other Formats
Station Details ID: 062100 Name: NULLO MOUNTAIN AWS Lat: -32.72 Lon: 150.23 Height: 1130.0 m
Data from the previous 72 hours. | See also: Recent months at Nullo Mountain
Date/Time
EST
Temp
°C
App
Temp
°C
Dew
Point
Rel
Hum
%
Delta-T
°C
Wind Press
QNH
hPa
Press
MSL
hPa
Rain
since 9 am
mm
Dir
 
Spd
km/h
Gust
km/h
Spd
kts
Gust
kts
24/02:00am 13.1 9.5 3.2 51 4.7 N 11 17 6 9 - - 0.0
24/01:30am 12.8 8.9 1.2 45 5.3 N 11 15 6 8 - - 0.0
24/01:00am 13.1 9.4 -0.2 40 5.9 N 9 15 5 8 - - 0.0
24/12:30am 13.5 9.6 -1.3 36 6.4 N 9 13 5 7 - - 0.0
24/12:00am 13.3 9.3 -2.2 34 6.6 N 9 15 5 8 - - 0.0
 
Date/Time
EST
Temp
°C
App
Temp
°C
Dew
Point
Rel
Hum
%
Delta-T
°C
Wind Press
QNH
hPa
Press
MSL
hPa
Rain
since 9 am
mm
Dir
 
Spd
km/h
Gust
km/h
Spd
kts
Gust
kts
23/11:30pm 13.6 8.9 -5.0 27 7.4 N 11 17 6 9 - - 0.0
23/11:00pm 13.8 9.5 -4.4 28 7.4 N 9 15 5 8 - - 0.0
23/10:30pm 14.6 10.4 -3.7 28 7.6 N 9 15 5 8 - - 0.0
23/10:00pm 14.2 10.1 -6.6 23 8.1 N 7 13 4 7 - - 0.0
23/09:30pm 14.5 10.3 -8.2 20 8.5 N 7 11 4 6 - - 0.0
23/09:00pm 12.9 9.4 -6.1 26 7.4 N 4 6 2 3 - - 0.0
23/08:30pm 12.5 9.5 -1.8 37 6.1 NNW 4 6 2 3 - - 0.0
23/08:00pm 11.4 9.4 2.4 54 4.1 WSW 2 2 1 1 - - 0.0
23/07:30pm 11.3 9.6 1.8 52 4.3 CALM 0 0 0 0 - - 0.0
23/07:00pm 11.9 10.4 3.2 55 4.1 CALM 0 0 0 0 - - 0.0
23/06:30pm 12.1 10.8 4.1 58 3.8 CALM 0 0 0 0 - - 0.0
23/06:00pm 12.2 10.8 3.7 56 4.1 CALM 0 0 0 0 - - 0.0
23/05:30pm 13.3 11.5 3.4 51 4.7 WSW 2 4 1 2 - - 0.0
23/05:00pm 15.6 13.4 3.1 43 6.0 WSW 4 6 2 3 - - 0.0
23/04:30pm 16.5 13.8 0.2 33 7.5 WSW 4 7 2 4 - - 0.0
23/04:00pm 16.9 13.8 0.1 32 7.7 WSW 6 9 3 5 - - 0.0
23/03:30pm 17.8 14.8 1.7 34 7.7 W 7 11 4 6 - - 0.0
23/03:00pm 18.1 14.9 2.8 36 7.5 W 9 15 5 8 - - 0.0
23/02:30pm 18.6 16.0 4.0 38 7.3 W 7 17 4 9 - - 0.0
23/02:00pm 18.6 16.1 6.4 45 6.4 WSW 9 17 5 9 - - 0.0
23/01:30pm 17.7 14.8 4.6 42 6.6 W 9 19 5 10 - - 0.0
23/01:00pm 17.5 15.2 4.8 43 6.4 W 6 13 3 7 - - 0.0
23/12:30pm 18.0 15.9 6.5 47 6.0 W 7 13 4 7 - - 0.0
23/12:00pm 16.8 14.2 6.3 50 5.5 NW 9 15 5 8 - - 0.0
23/11:30am 16.0 12.7 4.7 47 5.7 NW 11 20 6 11 - - 0.0
23/11:00am 15.8 12.4 4.2 46 5.7 NNW 11 19 6 10 - - 0.0
23/10:30am 15.5 12.6 4.6 48 5.4 NW 9 15 5 8 - - 0.0
23/10:00am 15.3 12.7 4.1 47 5.5 NW 7 13 4 7 - - 0.0
23/09:30am 14.8 12.3 4.5 50 5.1 NW 7 11 4 6 - - 0.0
23/09:00am 14.2 11.6 4.2 51 4.9 NW 7 13 4 7 - - 0.0
23/08:30am 13.6 10.3 0.3 40 6.0 NW 7 11 4 6 - - 0.0
23/08:00am 13.9 10.3 -3.8 29 7.3 NNW 6 9 3 5 - - 0.0
23/07:30am 13.6 10.1 -6.0 25 7.7 NNW 4 7 2 4 - - 0.0
23/07:00am 10.0 7.1 -8.1 27 6.5 CALM 0 0 0 0 - - 0.0
23/06:30am 9.7 6.7 -9.3 25 6.6 CALM 0 0 0 0 - - 0.0
23/06:00am 9.8 6.8 -8.8 26 6.5 SSW 0 0 0 0 - - 0.0
23/05:30am 8.5 5.2 -8.1 30 5.8 SSW 2 6 1 3 - - 0.0
23/05:00am 8.5 5.8 -5.7 36 5.3 CALM 0 0 0 0 - - 0.0
23/04:30am 9.3 6.8 -3.6 40 5.1 CALM 0 2 0 1 - - 0.0
23/04:00am 9.3 6.5 -3.3 41 5.0 NW 2 4 1 2 - - 0.0
23/03:30am 10.0 6.8 -3.6 38 5.4 WNW 4 6 2 3 - - 0.0
23/03:00am 11.2 7.5 -4.5 33 6.2 W 6 15 3 8 - - 0.0
23/02:30am 10.8 7.0 -5.2 32 6.2 WNW 6 11 3 6 - - 0.0
23/02:00am 10.6 7.2 -2.4 40 5.3 WNW 6 11 3 6 - - 0.0
23/01:30am 10.2 6.9 -1.2 45 4.8 NW 6 9 3 5 - - 0.0
23/01:00am 12.2 8.5 -2.8 35 6.2 W 7 11 4 6 - - 0.0
23/12:30am 12.8 8.8 -2.6 34 6.4 WNW 9 19 5 10 - - 0.0
23/12:00am 12.7 8.8 -4.9 29 7.0 W 7 15 4 8 - - 0.0
 
Date/Time
EST
Temp
°C
App
Temp
°C
Dew
Point
Rel
Hum
%
Delta-T
°C
Wind Press
QNH
hPa
Press
MSL
hPa
Rain
since 9 am
mm
Dir
 
Spd
km/h
Gust
km/h
Spd
kts
Gust
kts
22/11:30pm 12.0 8.1 -4.6 31 6.6 WNW 7 15 4 8 - - 0.0
22/11:00pm 11.6 7.8 -3.7 34 6.2 WNW 7 13 4 7 - - 0.0
22/10:30pm 10.1 7.2 1.2 54 3.9 WNW 6 13 3 7 - - 0.0
22/10:00pm 9.1 6.9 3.1 66 2.8 NW 4 7 2 4 - - 0.0
22/09:30pm 10.5 7.6 2.4 57 3.7 W 7 19 4 10 - - 0.0
22/09:00pm 10.1 7.3 2.2 58 3.6 NW 6 9 3 5 - - 0.0
22/08:30pm 10.7 7.9 2.0 55 4.0 WNW 6 7 3 4 - - 0.0
22/08:00pm 11.1 8.1 2.2 54 4.1 W 7 15 4 8 - - 0.0
22/07:30pm 11.4 8.4 1.9 52 4.3 W 7 13 4 7 - - 0.0
22/07:00pm 10.9 8.2 2.5 56 3.9 WNW 6 11 3 6 - - 0.0
22/06:30pm 11.0 8.2 3.1 58 3.7 WNW 7 13 4 7 - - 0.0
22/06:00pm 11.6 9.0 3.4 57 3.9 WNW 6 13 3 7 - - 0.0
22/05:30pm 12.3 9.6 3.5 55 4.2 WNW 7 17 4 9 - - 0.0
22/05:00pm 13.1 10.0 3.7 53 4.5 WNW 9 19 5 10 - - 0.0
22/04:30pm 13.7 10.3 3.8 51 4.8 WNW 11 20 6 11 - - 0.0
22/04:00pm 14.0 10.6 3.8 50 4.9 WNW 11 19 6 10 - - 0.0
22/03:30pm 14.9 11.1 3.7 47 5.5 WNW 13 22 7 12 - - 0.0
22/03:00pm 15.1 10.7 2.6 43 6.0 WNW 15 26 8 14 - - 0.0
22/02:30pm 15.6 11.6 3.1 43 6.0 NW 13 28 7 15 - - 0.0
22/02:00pm 15.6 10.9 1.0 37 6.8 WNW 15 30 8 16 - - 0.0
22/01:30pm 15.1 11.2 3.6 46 5.6 WNW 13 26 7 14 - - 0.0
22/01:00pm 15.4 11.7 2.6 42 6.1 NW 11 24 6 13 - - 0.0
22/12:30pm 15.3 11.2 2.5 42 6.1 NW 13 24 7 13 - - 0.0
22/12:00pm 14.6 11.3 4.6 51 5.0 NW 11 20 6 11 - - 0.0
22/11:30am 14.5 11.8 5.6 55 4.5 NW 9 19 5 10 - - 0.0
22/11:00am 13.9 10.4 5.5 57 4.2 NNW 13 20 7 11 - - 0.0
22/10:30am 13.7 10.4 4.3 53 4.6 NW 11 20 6 11 - - 0.0
22/10:00am 13.4 9.7 4.3 54 4.4 NNW 13 22 7 12 - - 0.0
22/09:30am 13.1 9.0 4.3 55 4.3 NNW 15 32 8 17 - - 0.0
22/09:00am 12.9 9.5 4.1 55 4.3 NNW 11 19 6 10 - - 0.0
22/08:30am 12.4 9.0 3.9 56 4.1 NNW 11 20 6 11 - - 0.0
22/08:00am 12.1 9.0 3.6 56 4.0 NNW 9 17 5 9 - - 0.0
22/07:30am 10.8 7.7 3.4 60 3.5 NNW 9 15 5 8 - - 0.0
22/07:00am 10.3 7.1 3.1 61 3.3 NNW 9 15 5 8 - - 0.0
22/06:30am 10.1 6.5 3.2 62 3.2 NNW 11 17 6 9 - - 0.0
22/06:00am 10.2 7.0 3.0 61 3.3 NNW 9 19 5 10 - - 0.0
22/05:30am 9.3 6.6 2.9 64 2.9 NNW 6 11 3 6 - - 0.0
22/05:00am 9.4 6.2 3.2 65 2.9 NNW 9 13 5 7 - - 0.0
22/04:30am 9.6 6.4 3.1 64 3.0 NNW 9 13 5 7 - - 0.0
22/04:00am 9.1 6.4 3.7 69 2.5 N 7 13 4 7 - - 0.0
22/03:30am 8.7 6.2 3.9 72 2.2 N 6 9 3 5 - - 0.0
22/03:00am 7.1 4.9 3.3 77 1.7 N 4 7 2 4 - - 0.0
22/02:30am 7.5 5.5 4.3 80 1.5 N 4 6 2 3 - - 0.0
22/02:00am 7.0 5.0 4.3 83 1.3 N 4 6 2 3 - - 0.0
22/01:30am 6.7 4.5 3.5 80 1.5 N 4 7 2 4 - - 0.0
22/01:00am 6.5 4.2 2.6 76 1.7 N 4 6 2 3 - - 0.0
22/12:30am 7.0 5.2 3.4 78 1.6 ENE 2 6 1 3 - - 0.0
22/12:00am 9.1 6.7 4.5 73 2.2 N 6 9 3 5 - - 0.0
 
Date/Time
EST
Temp
°C
App
Temp
°C
Dew
Point
Rel
Hum
%
Delta-T
°C
Wind Press
QNH
hPa
Press
MSL
hPa
Rain
since 9 am
mm
Dir
 
Spd
km/h
Gust
km/h
Spd
kts
Gust
kts
21/11:30pm 7.7 6.2 5.0 83 1.3 N 2 6 1 3 - - 0.0
21/11:00pm 7.7 5.8 4.8 82 1.4 N 4 6 2 3 - - 0.0
21/10:30pm 8.1 6.9 4.5 78 1.7 CALM 0 2 0 1 - - 0.0
21/10:00pm 8.4 7.2 4.4 76 1.9 CALM 0 0 0 0 - - 0.0
21/09:30pm 6.9 5.5 3.3 78 1.6 CALM 0 4 0 2 - - 0.0
21/09:00pm 7.9 6.2 4.1 77 1.8 NNE 2 4 1 2 - - 0.0
21/08:30pm 8.2 6.5 4.2 76 1.9 NNE 2 6 1 3 - - 0.0
21/08:00pm 8.5 6.5 4.3 75 2.0 NNE 4 7 2 4 - - 0.0
21/07:30pm 8.4 7.2 4.4 76 1.9 CALM 0 0 0 0 - - 0.0
21/07:00pm 8.9 7.8 5.1 77 1.8 CALM 0 0 0 0 - - 0.0
21/06:30pm 8.7 7.6 5.1 78 1.7 CALM 0 0 0 0 - - 0.0
21/06:00pm 9.7 8.7 5.7 76 2.0 CALM 0 2 0 1 - - 0.0
21/05:30pm 11.1 10.3 6.5 73 2.3 CALM 0 0 0 0 - - 0.0
21/05:00pm 12.6 11.8 6.6 67 3.1 CALM 0 0 0 0 - - 0.0
21/04:30pm 13.9 13.0 6.0 59 4.0 CALM 0 4 0 2 - - 0.0
21/04:00pm 14.1 12.4 5.7 57 4.2 SSW 4 9 2 5 - - 0.0
21/03:30pm 15.5 13.8 6.0 53 4.9 W 4 9 2 5 - - 0.0
21/03:00pm 15.9 14.2 5.8 51 5.2 SSW 4 6 2 3 - - 0.0
21/02:30pm 16.3 14.6 5.9 50 5.3 W 4 9 2 5 - - 0.0
21/02:00pm 16.0 14.1 5.0 48 5.5 WNW 4 9 2 5 - - 0.0
21/01:30pm 15.5 13.7 5.4 51 5.1 WSW 4 9 2 5 - - 0.0
21/01:00pm 15.1 12.7 4.2 48 5.4 WSW 6 11 3 6 - - 0.0
21/12:30pm 14.2 11.7 3.9 50 5.0 SW 6 11 3 6 - - 0.0
21/12:00pm 14.5 12.5 6.1 57 4.3 W 6 9 3 5 - - 0.0
21/11:30am 13.9 11.7 5.5 57 4.2 W 6 9 3 5 - - 0.0
21/11:00am 13.7 11.8 6.8 63 3.6 NW 6 7 3 4 - - 0.0
21/10:30am 12.8 11.0 5.2 60 3.8 WNW 4 9 2 5 - - 0.0
21/10:00am 12.0 9.9 5.9 66 3.0 WSW 6 7 3 4 - - 0.0
21/09:30am 11.7 9.4 3.0 55 4.1 E 4 6 2 3 - - 0.0
21/09:00am 10.3 8.1 3.3 62 3.3 E 4 7 2 4 - - 0.0
21/08:30am 9.3 6.6 2.6 63 3.0 SSE 6 7 3 4 - - 0.0
21/08:00am 8.4 5.6 3.3 70 2.3 S 7 13 4 7 - - 0.0
21/07:30am 7.3 4.0 2.2 70 2.3 SSE 9 15 5 8 - - 0.0
21/07:00am 5.1 2.3 2.3 82 1.2 ESE 6 7 3 4 - - 0.0
21/06:30am 5.6 2.2 1.9 77 1.6 S 9 17 5 9 - - 0.0
21/06:00am 5.6 2.6 1.9 77 1.6 SSW 7 13 4 7 - - 0.0
21/05:30am 5.4 2.0 1.9 78 1.5 SSW 9 15 5 8 - - 0.0
21/05:00am 4.0 1.4 0.7 79 1.4 S 4 6 2 3 - - 0.0
21/04:30am 5.2 2.7 1.5 77 1.6 SSW 4 7 2 4 - - 0.0
21/04:00am 5.6 3.2 2.3 79 1.4 SW 4 6 2 3 - - 0.0
21/03:30am 5.8 3.8 2.4 79 1.5 W 2 7 1 4 - - 0.0
21/03:00am 5.7 3.4 2.5 80 1.4 W 4 7 2 4 - - 0.0
21/02:30am 6.1 3.4 2.7 79 1.5 W 6 11 3 6 - - 0.0

Other Formats:

Comma delimited format used in spreadsheet applications
http://www.bom.gov.au/fwo/IDN60801/IDN60801.94754.axf

JavaScript Object Notation format (JSON) in row-major order
http://www.bom.gov.au/fwo/IDN60801/IDN60801.94754.json